Time;durP1;ratioP1;P1;durP2;ratioP2;P2;SDS_P1;SDS_P2;PMS_P1;PMS_P2;Temp;Humidity;BMP_temperature;BMP_pressure;BME280_temperature;BME280_humidity;BME280_pressure;Samples;Min_cycle;Max_cycle;Signal;HPM_P1;HPM_P2
2022/04/20 00:00:27;;;;;;;;;;;;;;;17.06;53.94;101443.41;1053280;28;642;-63
2022/04/20 00:01:18;;;;;;;;;;;;;;;17.05;54.34;101444.38;1053158;28;663;-63
2022/04/20 00:02:08;;;;;;;;;;;;;;;17.05;53.91;101435.44;1052417;28;661;-62
2022/04/20 00:02:59;;;;;;;;;;;;;;;17.04;54.04;101442.69;1053947;28;1564;-61
2022/04/20 00:03:49;;;;;;;;;;;;;;;17.04;53.87;101445.38;1052975;28;1496;-62
2022/04/20 00:04:39;;;;;;;;;;;;;;;17.04;53.97;101445.38;1053239;28;563;-62
2022/04/20 00:05:33;;;;;;;;;;;;;;;17.04;54.66;101447.22;1053138;28;740;-62
2022/04/20 00:06:24;;;;;;;;;;;;;;;17.04;54.25;101455.28;1053732;28;703;-62
2022/04/20 00:07:14;;;;;;;;;;;;;;;17.02;54.14;101443.81;1053187;28;712;-62
2022/04/20 00:08:05;;;;;;;;;;;;;;;17.02;54.42;101450.03;1053071;28;637;-62
2022/04/20 00:08:55;;;;;;;;;;;;;;;17.02;54.42;101443.81;1052706;28;681;-62
2022/04/20 00:09:46;;;;;;;;;;;;;;;17.01;54.56;101448.34;1053011;28;755;-62
2022/04/20 00:10:36;;;;;;;;;;;;;;;17.02;54.80;101449.19;1052738;28;674;-62
2022/04/20 00:11:26;;;;;;;;;;;;;;;17.02;54.08;101449.19;1052649;28;626;-62
2022/04/20 00:12:17;;;;;;;;;;;;;;;17.02;54.02;101449.19;1052026;28;778;-62
2022/04/20 00:13:07;;;;;;;;;;;;;;;16.99;53.74;101443.09;1053236;28;654;-62
2022/04/20 00:13:58;;;;;;;;;;;;;;;16.99;54.48;101443.09;1053675;28;677;-62
2022/04/20 00:14:48;;;;;;;;;;;;;;;16.98;54.67;101445.91;1052641;28;717;-62
2022/04/20 00:15:39;;;;;;;;;;;;;;;16.97;54.13;101445.03;1048487;28;650;-63
2022/04/20 00:16:29;;;;;;;;;;;;;;;16.96;54.24;101443.31;1049815;28;712;-62
2022/04/20 00:17:20;;;;;;;;;;;;;;;16.98;54.60;101448.59;1052982;28;634;-62
2022/04/20 00:18:10;;;;;;;;;;;;;;;16.96;54.09;101443.31;1053735;28;1894;-62
2022/04/20 00:19:01;;;;;;;;;;;;;;;16.96;54.11;101448.72;1052733;28;638;-62
2022/04/20 00:19:51;;;;;;;;;;;;;;;16.95;53.86;101444.31;1052776;28;622;-62
2022/04/20 00:20:41;;;;;;;;;;;;;;;16.96;54.87;101446.03;1052547;28;632;-62
2022/04/20 00:21:32;;;;;;;;;;;;;;;16.95;54.31;101443.44;1053053;28;618;-62
2022/04/20 00:22:22;;;;;;;;;;;;;;;16.96;54.23;101437.09;1053141;28;653;-64
2022/04/20 00:23:13;;;;;;;;;;;;;;;16.95;54.37;101441.63;1052425;28;542;-64
2022/04/20 00:24:03;;;;;;;;;;;;;;;16.94;54.60;101442.59;1052534;28;663;-64
2022/04/20 00:24:54;;;;;;;;;;;;;;;16.92;54.15;101439.16;1052969;28;704;-65
2022/04/20 00:25:44;;;;;;;;;;;;;;;16.92;54.63;101449.94;1053092;28;629;-64
2022/04/20 00:26:35;;;;;;;;;;;;;;;16.93;54.65;101442.72;1052699;28;672;-64
2022/04/20 00:27:26;;;;;;;;;;;;;;;16.92;54.35;101444.56;1053727;28;871;-63
2022/04/20 00:28:16;;;;;;;;;;;;;;;16.91;54.12;101440.16;1053620;28;740;-63
2022/04/20 00:29:07;;;;;;;;;;;;;;;16.91;54.26;101440.16;1052976;28;689;-63
2022/04/20 00:29:57;;;;;;;;;;;;;;;16.92;54.33;101438.31;1052410;28;658;-59
2022/04/20 00:30:47;;;;;;;;;;;;;;;16.93;54.19;101446.25;1053226;28;643;-62
2022/04/20 00:31:38;;;;;;;;;;;;;;;16.92;54.82;101438.31;1052862;28;642;-61
2022/04/20 00:32:29;;;;;;;;;;;;;;;16.92;54.36;101443.69;1052967;28;756;-59
2022/04/20 00:33:20;;;;;;;;;;;;;;;16.90;54.16;101440.28;1049819;28;665;-62
2022/04/20 00:34:10;;;;;;;;;;;;;;;16.90;54.27;101435.75;1048570;28;689;-63
2022/04/20 00:35:00;;;;;;;;;;;;;;;16.89;54.56;101434.03;1048474;28;678;-63
2022/04/20 00:35:51;;;;;;;;;;;;;;;16.88;54.54;101437.69;1048535;28;688;-63
2022/04/20 00:36:41;;;;;;;;;;;;;;;16.88;54.34;101437.69;1048051;28;670;-63
2022/04/20 00:37:32;;;;;;;;;;;;;;;16.86;54.16;101434.28;1049430;28;637;-63
2022/04/20 00:38:23;;;;;;;;;;;;;;;16.87;54.86;101438.69;1048352;28;1894;-64
2022/04/20 00:39:13;;;;;;;;;;;;;;;16.85;54.43;101435.25;1048211;28;717;-63
2022/04/20 00:40:04;;;;;;;;;;;;;;;16.86;54.28;101436.97;1048124;28;610;-63
2022/04/20 00:40:55;;;;;;;;;;;;;;;16.86;54.39;101436.97;1048181;28;685;-63
2022/04/20 00:41:45;;;;;;;;;;;;;;;16.86;54.16;101445.03;1048417;28;728;-63
2022/04/20 00:42:36;;;;;;;;;;;;;;;16.86;54.12;101438.81;1048800;28;677;-63
2022/04/20 00:43:28;;;;;;;;;;;;;;;16.85;53.94;101443.34;1051566;28;1475;-63
2022/04/20 00:44:18;;;;;;;;;;;;;;;16.85;54.56;101437.09;1053635;28;562;-63
2022/04/20 00:45:08;;;;;;;;;;;;;;;16.84;54.35;101449.69;1052775;28;558;-64
2022/04/20 00:45:59;;;;;;;;;;;;;;;16.85;54.15;101445.16;1052949;28;630;-63
2022/04/20 00:46:49;;;;;;;;;;;;;;;16.86;54.00;101446.88;1053519;28;660;-64
2022/04/20 00:47:42;;;;;;;;;;;;;;;16.86;54.35;101454.97;1052410;28;633;-63
2022/04/20 00:48:35;;;;;;;;;;;;;;;16.84;54.47;101443.50;1053593;28;656;-64
2022/04/20 00:49:26;;;;;;;;;;;;;;;16.85;54.35;101455.94;1049074;28;919;-63
2022/04/20 00:50:16;;;;;;;;;;;;;;;16.84;53.94;101455.06;1048611;28;661;-62
2022/04/20 00:51:07;;;;;;;;;;;;;;;16.84;54.46;101452.38;1048483;28;638;-63
2022/04/20 00:51:57;;;;;;;;;;;;;;;16.83;54.35;101445.31;1048446;28;1307;-63
2022/04/20 00:52:48;;;;;;;;;;;;;;;16.83;53.98;101456.09;1048513;28;720;-64
2022/04/20 00:53:38;;;;;;;;;;;;;;;16.83;54.23;101460.63;1049189;28;680;-64
2022/04/20 00:54:29;;;;;;;;;;;;;;;16.83;54.12;101458.78;1053141;28;668;-64
2022/04/20 00:55:19;;;;;;;;;;;;;;;16.82;54.55;101457.06;1052676;28;622;-64
2022/04/20 00:56:09;;;;;;;;;;;;;;;16.81;54.38;101455.34;1053045;28;1394;-64
2022/04/20 00:57:00;;;;;;;;;;;;;;;16.81;54.38;101460.75;1053541;28;646;-64
2022/04/20 00:57:50;;;;;;;;;;;;;;;16.80;54.56;101453.66;1052449;28;641;-64
2022/04/20 00:58:41;;;;;;;;;;;;;;;16.80;54.91;101456.34;1052335;28;645;-64
2022/04/20 00:59:31;;;;;;;;;;;;;;;16.79;54.30;101459.16;1052501;28;712;-63
2022/04/20 01:00:22;;;;;;;;;;;;;;;16.79;54.49;101460.00;1052378;28;665;-63
2022/04/20 01:01:12;;;;;;;;;;;;;;;16.80;54.22;101460.84;1051866;28;613;-63
2022/04/20 01:02:02;;;;;;;;;;;;;;;16.79;54.32;101456.47;1052535;28;640;-63
2022/04/20 01:02:53;;;;;;;;;;;;;;;16.79;54.63;101457.31;1052326;28;594;-63
2022/04/20 01:03:43;;;;;;;;;;;;;;;16.79;54.32;101451.94;1052409;28;712;-63
2022/04/20 01:04:34;;;;;;;;;;;;;;;16.78;54.30;101458.28;1052353;28;617;-63
2022/04/20 01:05:24;;;;;;;;;;;;;;;16.79;54.12;101456.47;1052462;28;759;-63
2022/04/20 01:06:15;;;;;;;;;;;;;;;16.78;54.11;101454.75;1052531;28;606;-64
2022/04/20 01:07:05;;;;;;;;;;;;;;;16.78;54.23;101452.91;1051737;28;653;-64
2022/04/20 01:07:55;;;;;;;;;;;;;;;16.78;54.15;101458.28;1052381;28;704;-64
2022/04/20 01:08:46;;;;;;;;;;;;;;;16.78;54.13;101457.44;1052272;28;697;-64
2022/04/20 01:09:36;;;;;;;;;;;;;;;16.78;54.30;101457.44;1051983;28;754;-64
2022/04/20 01:10:27;;;;;;;;;;;;;;;16.76;53.95;101454.88;1051733;28;717;-64
2022/04/20 01:11:17;;;;;;;;;;;;;;;16.75;53.98;101453.16;1051775;28;652;-64
2022/04/20 01:12:07;;;;;;;;;;;;;;;16.75;54.04;101455.00;1052438;28;667;-64
2022/04/20 01:12:58;;;;;;;;;;;;;;;16.75;54.19;101460.38;1052442;28;563;-65
2022/04/20 01:13:48;;;;;;;;;;;;;;;16.74;54.22;101456.81;1052467;28;677;-64
2022/04/20 01:14:39;;;;;;;;;;;;;;;16.75;54.29;101457.69;1051672;28;673;-64
2022/04/20 01:15:29;;;;;;;;;;;;;;;16.74;53.91;101455.97;1052522;28;671;-65
2022/04/20 01:16:20;;;;;;;;;;;;;;;16.73;54.16;101457.81;1053202;28;797;-65
2022/04/20 01:17:10;;;;;;;;;;;;;;;16.73;54.27;101460.50;1048426;28;547;-64
2022/04/20 01:18:00;;;;;;;;;;;;;;;16.73;54.27;101451.56;1048910;28;1905;-66
2022/04/20 01:18:51;;;;;;;;;;;;;;;16.72;53.74;101450.69;1053379;28;664;-64
2022/04/20 01:19:41;;;;;;;;;;;;;;;16.72;54.48;101456.09;1052513;28;688;-64
2022/04/20 01:20:32;;;;;;;;;;;;;;;16.71;54.07;101449.00;1052902;28;622;-64
2022/04/20 01:21:24;;;;;;;;;;;;;;;16.71;54.15;101451.69;1052351;28;662;-64
2022/04/20 01:22:14;;;;;;;;;;;;;;;16.71;54.22;101449.00;1047991;28;638;-64
2022/04/20 01:23:04;;;;;;;;;;;;;;;16.71;54.30;101446.28;1048217;28;578;-64
2022/04/20 01:23:55;;;;;;;;;;;;;;;16.70;54.29;101449.97;1048077;28;650;-64
2022/04/20 01:24:45;;;;;;;;;;;;;;;16.70;54.35;101449.13;1047748;28;673;-64
2022/04/20 01:25:36;;;;;;;;;;;;;;;16.70;54.17;101443.72;1048007;28;761;-64
2022/04/20 01:26:26;;;;;;;;;;;;;;;16.69;54.30;101448.25;1048177;28;614;-64
2022/04/20 01:27:16;;;;;;;;;;;;;;;16.70;54.10;101446.41;1048295;28;613;-64
2022/04/20 01:28:07;;;;;;;;;;;;;;;16.69;54.32;101448.25;1048077;28;626;-65
2022/04/20 01:28:57;;;;;;;;;;;;;;;16.68;53.85;101443.84;1048247;28;677;-64
2022/04/20 01:29:48;;;;;;;;;;;;;;;16.69;54.19;101445.56;1048066;28;685;-62
2022/04/20 01:30:38;;;;;;;;;;;;;;;16.69;54.29;101445.56;1048157;28;618;-62
2022/04/20 01:31:29;;;;;;;;;;;;;;;16.67;54.18;101440.31;1049254;28;633;-61
2022/04/20 01:32:19;;;;;;;;;;;;;;;16.67;54.24;101448.38;1048957;28;733;-61
2022/04/20 01:33:09;;;;;;;;;;;;;;;16.67;54.00;101444.81;1047454;28;689;-62
2022/04/20 01:34:00;;;;;;;;;;;;;;;16.66;54.12;101443.13;1049246;28;689;-61
2022/04/20 01:34:52;;;;;;;;;;;;;;;16.67;54.12;101444.81;1048113;28;665;-62
2022/04/20 01:35:42;;;;;;;;;;;;;;;16.68;54.21;101446.53;1048915;28;1537;-61
2022/04/20 01:36:33;;;;;;;;;;;;;;;16.66;54.18;101453.88;1049317;28;669;-62
2022/04/20 01:37:23;;;;;;;;;;;;;;;16.66;53.86;101453.88;1048145;28;590;-62
2022/04/20 01:38:13;;;;;;;;;;;;;;;16.68;54.44;101449.22;1048640;28;1901;-61
2022/04/20 01:39:04;;;;;;;;;;;;;;;16.66;54.06;101435.91;1048559;28;636;-61
2022/04/20 01:39:54;;;;;;;;;;;;;;;16.66;53.98;101452.03;1048644;28;618;-61
2022/04/20 01:40:45;;;;;;;;;;;;;;;16.66;53.91;101445.81;1047983;28;622;-61
2022/04/20 01:41:35;;;;;;;;;;;;;;;16.65;54.13;101450.38;1047544;28;583;-61
2022/04/20 01:42:25;;;;;;;;;;;;;;;16.64;53.96;101447.78;1048476;28;737;-59
2022/04/20 01:43:16;;;;;;;;;;;;;;;16.63;54.12;101454.16;1049432;28;765;-57
2022/04/20 01:44:06;;;;;;;;;;;;;;;16.61;54.28;101446.16;1049835;28;696;-61
2022/04/20 01:44:58;;;;;;;;;;;;;;;16.62;54.10;101452.41;1048049;28;681;-61
2022/04/20 01:45:48;;;;;;;;;;;;;;;16.60;54.16;101455.22;1048170;28;662;-61
2022/04/20 01:46:39;;;;;;;;;;;;;;;16.61;54.46;101453.38;1048078;28;689;-60
2022/04/20 01:47:29;;;;;;;;;;;;;;;16.61;54.36;101451.56;1048075;28;628;-61
2022/04/20 01:48:20;;;;;;;;;;;;;;;16.60;54.19;101455.22;1048208;28;663;-61
2022/04/20 01:49:10;;;;;;;;;;;;;;;16.61;54.13;101456.94;1048631;28;558;-61
2022/04/20 01:50:00;;;;;;;;;;;;;;;16.61;54.58;101454.25;1048214;28;716;-61
2022/04/20 01:52:00;;;;;;;;;;;;;;;16.59;53.77;101453.50;1053107;28;1508;-61
2022/04/20 01:52:50;;;;;;;;;;;;;;;16.61;54.18;101456.06;1052735;28;772;-60
2022/04/20 01:53:41;;;;;;;;;;;;;;;16.61;54.10;101464.16;1052137;28;1482;-61
2022/04/20 01:54:31;;;;;;;;;;;;;;;16.59;54.29;101458.88;1052424;28;634;-61
2022/04/20 01:55:22;;;;;;;;;;;;;;;16.59;54.21;101456.19;1052334;28;763;-60
2022/04/20 01:56:12;;;;;;;;;;;;;;;16.59;54.31;101464.28;1052588;28;1020;-61
2022/04/20 01:57:02;;;;;;;;;;;;;;;16.59;54.80;101463.41;1052794;28;685;-62
2022/04/20 01:57:53;;;;;;;;;;;;;;;16.57;54.41;101460.84;1052085;28;674;-61
2022/04/20 01:58:43;;;;;;;;;;;;;;;16.56;54.59;101459.13;1052378;28;665;-62
2022/04/20 01:59:34;;;;;;;;;;;;;;;16.58;54.10;101461.69;1052212;28;622;-61
2022/04/20 02:00:24;;;;;;;;;;;;;;;16.59;54.02;101463.41;1052281;28;606;-61
2022/04/20 02:02:38;;;;;;;;;;;;;;;16.55;54.54;101457.41;1068028;27;712;-62
2022/04/20 02:03:28;;;;;;;;;;;;;;;16.58;53.64;101459.00;1072163;27;656;-63
2022/04/20 02:04:18;;;;;;;;;;;;;;;16.57;53.88;101457.28;1067688;27;676;-62
2022/04/20 02:05:09;;;;;;;;;;;;;;;16.56;54.21;101460.97;1067440;27;639;-62
2022/04/20 02:05:59;;;;;;;;;;;;;;;16.54;54.06;101460.22;1071562;27;699;-62
2022/04/20 02:06:50;;;;;;;;;;;;;;;16.54;53.95;101463.78;1072623;27;707;-63
2022/04/20 02:07:41;;;;;;;;;;;;;;;16.53;53.97;101463.88;1072273;27;633;-62
2022/04/20 02:08:31;;;;;;;;;;;;;;;16.51;54.05;101464.00;1071294;27;644;-62
2022/04/20 02:09:22;;;;;;;;;;;;;;;16.52;54.27;101459.50;1072558;27;770;-62
2022/04/20 02:10:12;;;;;;;;;;;;;;;16.51;53.88;101458.63;1072267;27;621;-62
2022/04/20 02:11:02;;;;;;;;;;;;;;;16.50;53.67;101456.91;1072449;27;945;-63
2022/04/20 02:11:53;;;;;;;;;;;;;;;16.51;54.08;101457.78;1072773;27;630;-66
2022/04/20 02:12:43;;;;;;;;;;;;;;;16.50;54.02;101453.38;1072355;27;594;-65
2022/04/20 02:13:34;;;;;;;;;;;;;;;16.51;54.09;101452.41;1072059;27;647;-65
2022/04/20 02:14:26;;;;;;;;;;;;;;;16.52;54.03;101459.50;1071548;27;649;-63
2022/04/20 02:15:17;;;;;;;;;;;;;;;16.51;53.81;101460.47;1072031;27;724;-62
2022/04/20 02:16:07;;;;;;;;;;;;;;;16.51;54.03;101453.25;1072829;27;751;-64
2022/04/20 02:16:58;;;;;;;;;;;;;;;16.50;53.64;101454.22;1071878;27;700;-64
2022/04/20 02:17:48;;;;;;;;;;;;;;;16.49;54.08;101457.91;1072141;27;599;-64
2022/04/20 02:18:39;;;;;;;;;;;;;;;16.48;53.75;101450.81;1072367;27;579;-64
2022/04/20 02:19:29;;;;;;;;;;;;;;;16.49;53.92;101457.91;1071765;27;664;-64
2022/04/20 02:20:20;;;;;;;;;;;;;;;16.48;54.09;101456.19;1071917;27;1445;-64
2022/04/20 02:21:10;;;;;;;;;;;;;;;16.47;54.15;101457.19;1072198;27;1909;-63
2022/04/20 02:22:01;;;;;;;;;;;;;;;16.46;54.05;101458.16;1072111;27;1625;-63
2022/04/20 02:22:51;;;;;;;;;;;;;;;16.47;54.18;101448.25;1072150;27;660;-62
2022/04/20 02:23:41;;;;;;;;;;;;;;;16.49;53.49;101446.28;1072337;27;629;-63
2022/04/20 02:24:32;;;;;;;;;;;;;;;16.50;53.67;101448.00;1072560;27;602;-63
2022/04/20 02:25:22;;;;;;;;;;;;;;;16.48;54.14;101452.66;1072912;27;727;-63
2022/04/20 02:26:13;;;;;;;;;;;;;;;16.46;53.56;101452.78;1073018;27;731;-63
2022/04/20 02:27:03;;;;;;;;;;;;;;;16.45;54.07;101452.91;1072188;27;630;-63
2022/04/20 02:27:54;;;;;;;;;;;;;;;16.45;53.98;101445.69;1067741;27;642;-63
2022/04/20 02:28:44;;;;;;;;;;;;;;;16.43;54.21;101447.66;1067122;27;625;-63
2022/04/20 02:29:35;;;;;;;;;;;;;;;16.44;54.01;101451.19;1071877;27;657;-63
2022/04/20 02:30:25;;;;;;;;;;;;;;;16.45;53.92;101450.22;1072235;27;684;-64
2022/04/20 02:31:16;;;;;;;;;;;;;;;16.44;53.91;101448.50;1071744;27;625;-64
2022/04/20 02:32:07;;;;;;;;;;;;;;;16.44;54.05;101451.19;1071913;27;753;-64
2022/04/20 02:32:57;;;;;;;;;;;;;;;16.41;53.94;101452.28;1071541;27;655;-63
2022/04/20 02:33:48;;;;;;;;;;;;;;;16.41;53.94;101448.75;1072347;27;677;-63
2022/04/20 02:34:38;;;;;;;;;;;;;;;16.40;53.92;101444.34;1072525;27;593;-63
2022/04/20 02:35:28;;;;;;;;;;;;;;;16.40;53.97;101452.41;1072860;27;649;-63
2022/04/20 02:36:19;;;;;;;;;;;;;;;16.40;53.85;101450.56;1072512;27;653;-63
2022/04/20 02:37:09;;;;;;;;;;;;;;;16.42;53.84;101450.47;1071802;27;688;-63
2022/04/20 02:38:00;;;;;;;;;;;;;;;16.41;53.70;101448.75;1071946;27;638;-64
2022/04/20 02:38:50;;;;;;;;;;;;;;;16.39;53.78;101445.31;1072794;27;633;-64
2022/04/20 02:39:41;;;;;;;;;;;;;;;16.39;54.12;101458.75;1070810;27;1463;-63
2022/04/20 02:40:31;;;;;;;;;;;;;;;16.38;54.00;101449.84;1067151;27;610;-63
2022/04/20 02:41:22;;;;;;;;;;;;;;;16.39;54.00;101461.44;1067292;27;1945;-64
2022/04/20 02:42:12;;;;;;;;;;;;;;;16.38;54.56;101454.38;1067648;27;677;-63
2022/04/20 02:43:03;;;;;;;;;;;;;;;16.38;53.84;101455.22;1067370;27;606;-64
2022/04/20 02:43:53;;;;;;;;;;;;;;;16.39;53.91;101450.69;1067467;27;626;-64
2022/04/20 02:44:43;;;;;;;;;;;;;;;16.39;53.77;101450.69;1067298;27;769;-64
2022/04/20 02:45:34;;;;;;;;;;;;;;;16.40;53.54;101453.25;1067444;27;743;-64
2022/04/20 02:46:24;;;;;;;;;;;;;;;16.41;53.63;101459.50;1067232;27;677;-64
2022/04/20 02:47:16;;;;;;;;;;;;;;;16.40;53.73;101461.34;1067317;27;704;-64
2022/04/20 02:48:06;;;;;;;;;;;;;;;16.42;53.35;101455.84;1067552;27;694;-63
2022/04/20 02:48:56;;;;;;;;;;;;;;;16.41;53.58;101460.34;1067288;27;664;-64
2022/04/20 02:49:47;;;;;;;;;;;;;;;16.43;53.37;101455.72;1067466;27;636;-64
2022/04/20 02:50:37;;;;;;;;;;;;;;;16.43;53.57;101454.84;1069609;27;1206;-63
2022/04/20 02:51:28;;;;;;;;;;;;;;;16.39;53.95;101461.44;1071697;27;643;-64
2022/04/20 02:52:18;;;;;;;;;;;;;;;16.37;53.91;101458.03;1072440;27;600;-64
2022/04/20 02:53:08;;;;;;;;;;;;;;;16.36;53.68;101456.31;1072232;27;608;-64
2022/04/20 02:53:59;;;;;;;;;;;;;;;16.34;53.74;101459.13;1072455;27;958;-64
2022/04/20 02:54:49;;;;;;;;;;;;;;;16.32;53.58;101456.56;1073215;27;617;-61
2022/04/20 02:55:42;;;;;;;;;;;;;;;16.32;53.60;101456.56;1073007;27;605;-59
2022/04/20 02:56:32;;;;;;;;;;;;;;;16.31;54.06;101456.66;1072534;27;586;-60
2022/04/20 02:57:22;;;;;;;;;;;;;;;16.33;53.66;101452.03;1073180;27;700;-60
2022/04/20 02:58:13;;;;;;;;;;;;;;;16.34;53.50;101459.13;1071854;27;636;-64
2022/04/20 02:59:04;;;;;;;;;;;;;;;16.32;53.92;101451.16;1071884;27;696;-65
2022/04/20 02:59:54;;;;;;;;;;;;;;;16.33;53.94;101457.41;1069169;27;759;-64
2022/04/20 03:00:45;;;;;;;;;;;;;;;16.32;53.38;101458.38;1065190;27;617;-65
2022/04/20 03:01:35;;;;;;;;;;;;;;;16.31;53.52;101454.84;1062579;27;1679;-64
2022/04/20 03:02:26;;;;;;;;;;;;;;;16.33;53.69;101458.25;1069215;27;632;-63
2022/04/20 03:03:16;;;;;;;;;;;;;;;16.31;53.95;101454.84;1072068;27;676;-63
2022/04/20 03:04:07;;;;;;;;;;;;;;;16.30;53.78;101463.88;1071778;27;672;-65
2022/04/20 03:04:57;;;;;;;;;;;;;;;16.29;53.63;101464.88;1072688;27;810;-63
2022/04/20 03:05:48;;;;;;;;;;;;;;;16.30;53.95;101466.56;1072260;27;676;-63
2022/04/20 03:06:39;;;;;;;;;;;;;;;16.33;53.25;101462.78;1069266;27;1263;-61
2022/04/20 03:07:30;;;;;;;;;;;;;;;16.35;53.30;101458.16;1067440;27;697;-62
2022/04/20 03:08:20;;;;;;;;;;;;;;;16.33;53.37;101460.94;1067052;27;855;-61
2022/04/20 03:09:11;;;;;;;;;;;;;;;16.32;53.52;101459.25;1067359;27;651;-63
2022/04/20 03:10:01;;;;;;;;;;;;;;;16.32;53.63;101458.38;1067655;27;707;-62
2022/04/20 03:10:52;;;;;;;;;;;;;;;16.30;53.92;101453.13;1067291;27;657;-62
2022/04/20 03:11:43;;;;;;;;;;;;;;;16.30;53.63;101458.50;1067563;27;562;-62
2022/04/20 03:12:33;;;;;;;;;;;;;;;16.29;53.83;101467.59;1066779;27;653;-63
2022/04/20 03:13:24;;;;;;;;;;;;;;;16.32;53.02;101467.31;1060458;27;657;-64
2022/04/20 03:14:14;;;;;;;;;;;;;;;16.32;53.51;101458.38;1060698;27;676;-59
2022/04/20 03:15:05;;;;;;;;;;;;;;;16.31;53.62;101459.34;1064573;27;618;-62
2022/04/20 03:15:55;;;;;;;;;;;;;;;16.30;53.20;101463.06;1064679;27;629;-64
2022/04/20 03:16:45;;;;;;;;;;;;;;;16.31;53.49;101468.28;1064446;27;576;-62
2022/04/20 03:17:36;;;;;;;;;;;;;;;16.31;53.14;101470.97;1064591;27;644;-63
2022/04/20 03:18:31;;;;;;;;;;;;;;;16.30;53.40;101469.25;1065452;27;700;-63
2022/04/20 03:19:22;;;;;;;;;;;;;;;16.29;53.50;101464.03;1066686;27;1519;-62
2022/04/20 03:20:12;;;;;;;;;;;;;;;16.29;53.67;101462.19;1068983;27;688;-64
2022/04/20 03:21:03;;;;;;;;;;;;;;;16.28;53.51;101476.63;1068714;27;1937;-64
2022/04/20 03:21:53;;;;;;;;;;;;;;;16.30;53.14;101468.44;1069734;27;656;-63
2022/04/20 03:22:43;;;;;;;;;;;;;;;16.31;53.16;101465.59;1069242;27;665;-63
2022/04/20 03:23:34;;;;;;;;;;;;;;;16.30;53.21;101468.44;1069413;27;676;-63
2022/04/20 03:24:24;;;;;;;;;;;;;;;16.29;53.29;101467.59;1068298;27;685;-63
2022/04/20 03:25:15;;;;;;;;;;;;;;;16.27;53.66;101468.66;1064382;27;661;-64
2022/04/20 03:26:06;;;;;;;;;;;;;;;16.25;53.20;101458.03;1064658;27;621;-63
2022/04/20 03:26:56;;;;;;;;;;;;;;;16.24;53.23;101469.75;1068436;27;756;-64
2022/04/20 03:27:47;;;;;;;;;;;;;;;16.26;53.17;101467.81;1068914;27;672;-64
2022/04/20 03:28:37;;;;;;;;;;;;;;;16.24;53.51;101469.75;1069497;27;664;-64
2022/04/20 03:29:28;;;;;;;;;;;;;;;16.24;53.59;101464.38;1068598;27;688;-64
2022/04/20 03:30:19;;;;;;;;;;;;;;;16.23;52.94;101465.38;1068604;27;676;-64
2022/04/20 03:31:09;;;;;;;;;;;;;;;16.23;53.30;101462.69;1068884;27;686;-64
2022/04/20 03:31:59;;;;;;;;;;;;;;;16.24;53.16;101464.38;1068573;27;645;-64
2022/04/20 03:32:50;;;;;;;;;;;;;;;16.24;53.30;101460.84;1069416;27;712;-64
2022/04/20 03:33:41;;;;;;;;;;;;;;;16.25;53.91;101462.56;1069605;27;1091;-64
2022/04/20 03:34:31;;;;;;;;;;;;;;;16.24;53.27;101460.84;1068870;27;617;-64
2022/04/20 03:35:21;;;;;;;;;;;;;;;16.22;53.04;101471.72;1068697;27;663;-64
2022/04/20 03:36:12;;;;;;;;;;;;;;;16.23;53.62;101473.44;1069377;27;786;-64
2022/04/20 03:37:02;;;;;;;;;;;;;;;16.24;53.55;101468.91;1069722;27;688;-64
2022/04/20 03:37:53;;;;;;;;;;;;;;;16.22;53.37;101468.16;1069155;27;632;-64
2022/04/20 03:38:43;;;;;;;;;;;;;;;16.23;53.13;101472.56;1069427;27;599;-65
2022/04/20 03:39:33;;;;;;;;;;;;;;;16.23;53.02;101468.06;1065498;27;660;-65
2022/04/20 03:40:24;;;;;;;;;;;;;;;16.26;53.15;101472.34;1064999;27;790;-64
2022/04/20 03:41:14;;;;;;;;;;;;;;;16.22;52.96;101466.34;1065293;27;1954;-64
2022/04/20 03:42:05;;;;;;;;;;;;;;;16.19;53.20;101476.47;1064877;27;594;-63
2022/04/20 03:42:55;;;;;;;;;;;;;;;16.17;53.49;101467.66;1065065;27;621;-64
2022/04/20 03:43:45;;;;;;;;;;;;;;;16.20;53.12;101476.34;1066009;27;672;-64
2022/04/20 03:44:36;;;;;;;;;;;;;;;16.19;53.01;101466.56;1065077;27;747;-64
2022/04/20 03:45:26;;;;;;;;;;;;;;;16.20;53.21;101473.66;1064704;27;668;-65
2022/04/20 03:46:17;;;;;;;;;;;;;;;16.18;53.31;101470.25;1064825;27;651;-64
2022/04/20 03:47:07;;;;;;;;;;;;;;;16.19;53.05;101471.09;1064696;27;632;-64
2022/04/20 03:47:58;;;;;;;;;;;;;;;16.19;53.55;101471.09;1064914;27;633;-64
2022/04/20 03:48:49;;;;;;;;;;;;;;;16.18;53.37;101472.94;1064700;27;716;-64
2022/04/20 03:49:39;;;;;;;;;;;;;;;16.18;53.16;101474.75;1064915;27;638;-63
2022/04/20 03:50:30;;;;;;;;;;;;;;;16.19;53.06;101476.47;1064888;27;1182;-64
2022/04/20 03:51:20;;;;;;;;;;;;;;;16.17;53.22;101473.03;1069451;27;680;-64
2022/04/20 03:52:11;;;;;;;;;;;;;;;16.16;53.02;101469.50;1069194;27;579;-64
2022/04/20 03:53:01;;;;;;;;;;;;;;;16.16;53.17;101474.03;1069388;27;689;-64
2022/04/20 03:53:51;;;;;;;;;;;;;;;16.15;52.83;101473.16;1069003;27;638;-63
2022/04/20 03:54:42;;;;;;;;;;;;;;;16.15;53.61;101478.53;1069219;27;735;-64
2022/04/20 03:55:32;;;;;;;;;;;;;;;16.15;53.04;101472.31;1064330;27;621;-64
2022/04/20 03:56:23;;;;;;;;;;;;;;;16.15;53.36;101475.00;1060171;27;610;-64
2022/04/20 03:57:13;;;;;;;;;;;;;;;16.14;53.01;101479.50;1065045;27;616;-64
2022/04/20 03:58:04;;;;;;;;;;;;;;;16.13;53.13;101482.31;1064459;27;648;-64
2022/04/20 03:58:54;;;;;;;;;;;;;;;16.11;53.60;101479.78;1064655;27;625;-64
2022/04/20 03:59:45;;;;;;;;;;;;;;;16.11;53.08;101474.41;1064816;27;571;-63
2022/04/20 04:00:36;;;;;;;;;;;;;;;16.11;53.28;101478.91;1064157;27;1068;-64
2022/04/20 04:01:26;;;;;;;;;;;;;;;16.09;53.40;101475.50;1064702;27;1983;-63
2022/04/20 04:02:17;;;;;;;;;;;;;;;16.10;53.10;101470.00;1065349;27;688;-64
2022/04/20 04:03:08;;;;;;;;;;;;;;;16.08;52.98;101479.16;1064749;27;692;-62
2022/04/20 04:03:58;;;;;;;;;;;;;;;16.06;53.38;101473.91;1064945;27;598;-62
2022/04/20 04:04:48;;;;;;;;;;;;;;;16.07;53.87;101477.44;1064661;27;648;-60
2022/04/20 04:05:40;;;;;;;;;;;;;;;16.07;53.36;101477.44;1064957;27;651;-59
2022/04/20 04:06:30;;;;;;;;;;;;;;;16.07;53.06;101477.44;1064039;27;625;-62
2022/04/20 04:07:21;;;;;;;;;;;;;;;16.09;53.71;101480.88;1064798;27;688;-63
2022/04/20 04:08:11;;;;;;;;;;;;;;;16.08;53.33;101482.69;1064931;27;589;-61
2022/04/20 04:09:01;;;;;;;;;;;;;;;16.07;53.80;101481.00;1065575;27;1498;-62
2022/04/20 04:09:52;;;;;;;;;;;;;;;16.06;52.85;101473.91;1068631;27;711;-61
2022/04/20 04:10:42;;;;;;;;;;;;;;;16.06;53.10;101481.09;1069666;27;601;-62
2022/04/20 04:11:33;;;;;;;;;;;;;;;16.07;53.20;101478.31;1068500;27;673;-63
2022/04/20 04:12:23;;;;;;;;;;;;;;;16.08;53.21;101480.00;1068722;27;688;-62
2022/04/20 04:13:14;;;;;;;;;;;;;;;16.07;53.30;101483.69;1069052;27;605;-63
2022/04/20 04:14:04;;;;;;;;;;;;;;;16.06;53.19;101486.47;1069276;27;669;-63
2022/04/20 04:14:55;;;;;;;;;;;;;;;16.05;53.50;101479.38;1068370;27;666;-62
2022/04/20 04:15:45;;;;;;;;;;;;;;;16.04;53.44;101483.06;1069235;27;599;-62
2022/04/20 04:16:39;;;;;;;;;;;;;;;16.02;53.41;101480.47;1068308;27;610;-63
2022/04/20 04:17:29;;;;;;;;;;;;;;;16.01;53.55;101489.53;1068139;27;647;-62
2022/04/20 04:18:20;;;;;;;;;;;;;;;16.01;53.47;101484.13;1068999;27;645;-61
2022/04/20 04:19:11;;;;;;;;;;;;;;;16.00;53.32;101490.50;1069224;27;676;-60
2022/04/20 04:20:01;;;;;;;;;;;;;;;15.99;53.50;101488.78;1068281;27;689;-62
2022/04/20 04:20:52;;;;;;;;;;;;;;;15.96;53.65;101489.00;1068514;27;629;-62
2022/04/20 04:21:42;;;;;;;;;;;;;;;15.97;53.45;101486.19;1068145;27;633;-62
2022/04/20 04:22:33;;;;;;;;;;;;;;;15.97;53.20;101488.88;1069094;27;676;-62
2022/04/20 04:23:23;;;;;;;;;;;;;;;15.97;53.28;101488.03;1069262;27;642;-62
2022/04/20 04:24:34;;;;;;;;;;;;;;;15.98;53.40;101495.97;1068754;27;657;-63
2022/04/20 04:25:24;;;;;;;;;;;;;;;15.99;53.16;101494.16;1068564;27;587;-63
2022/04/20 04:26:14;;;;;;;;;;;;;;;16.00;53.20;101493.19;1068303;27;629;-62
2022/04/20 04:27:05;;;;;;;;;;;;;;;15.99;54.00;101491.47;1068470;27;613;-63
2022/04/20 04:27:56;;;;;;;;;;;;;;;15.96;53.29;101494.38;1068304;27;575;-63
2022/04/20 04:28:46;;;;;;;;;;;;;;;15.95;53.33;101495.34;1069166;27;676;-62